sensor_id;sensor_type;location;lat;lon;timestamp;temperature;humidity
53422;DHT22;39319;52.944;5.928;2023-04-01T00:02:11;12.50;99.90
53422;DHT22;39319;52.944;5.928;2023-04-01T00:04:37;12.40;99.90
53422;DHT22;39319;52.944;5.928;2023-04-01T00:07:02;12.40;99.90
53422;DHT22;39319;52.944;5.928;2023-04-01T00:09:28;12.50;99.90
53422;DHT22;39319;52.944;5.928;2023-04-01T00:11:54;12.50;99.90
53422;DHT22;39319;52.944;5.928;2023-04-01T00:14:19;12.50;99.90
53422;DHT22;39319;52.944;5.928;2023-04-01T00:16:45;12.40;99.90
53422;DHT22;39319;52.944;5.928;2023-04-01T00:19:11;12.30;99.90
53422;DHT22;39319;52.944;5.928;2023-04-01T00:21:36;12.30;99.90
53422;DHT22;39319;52.944;5.928;2023-04-01T00:24:02;12.50;99.90
53422;DHT22;39319;52.944;5.928;2023-04-01T00:26:28;12.50;99.90
53422;DHT22;39319;52.944;5.928;2023-04-01T00:28:54;12.30;99.90
53422;DHT22;39319;52.944;5.928;2023-04-01T00:31:19;12.40;99.90
53422;DHT22;39319;52.944;5.928;2023-04-01T00:33:45;12.40;99.90
53422;DHT22;39319;52.944;5.928;2023-04-01T00:36:13;12.40;99.90
53422;DHT22;39319;52.944;5.928;2023-04-01T00:38:39;12.40;99.90
53422;DHT22;39319;52.944;5.928;2023-04-01T00:41:06;12.40;99.90
53422;DHT22;39319;52.944;5.928;2023-04-01T00:43:32;12.40;99.90
53422;DHT22;39319;52.944;5.928;2023-04-01T00:46:01;12.40;99.90
53422;DHT22;39319;52.944;5.928;2023-04-01T00:48:34;12.50;99.90
53422;DHT22;39319;52.944;5.928;2023-04-01T00:51:05;12.40;99.90
53422;DHT22;39319;52.944;5.928;2023-04-01T00:53:32;12.40;99.90
53422;DHT22;39319;52.944;5.928;2023-04-01T00:56:18;12.30;99.90
53422;DHT22;39319;52.944;5.928;2023-04-01T00:58:56;12.30;99.90
53422;DHT22;39319;52.944;5.928;2023-04-01T01:01:23;12.40;99.90
53422;DHT22;39319;52.944;5.928;2023-04-01T01:03:49;12.30;99.90
53422;DHT22;39319;52.944;5.928;2023-04-01T01:12:00;12.30;99.90
53422;DHT22;39319;52.944;5.928;2023-04-01T01:17:29;12.50;99.90
53422;DHT22;39319;52.944;5.928;2023-04-01T01:22:52;12.30;99.90
53422;DHT22;39319;52.944;5.928;2023-04-01T01:33:34;12.50;99.90
53422;DHT22;39319;52.944;5.928;2023-04-01T01:36:06;12.40;99.90
53422;DHT22;39319;52.944;5.928;2023-04-01T01:38:37;12.30;99.90
53422;DHT22;39319;52.944;5.928;2023-04-01T01:41:05;12.40;99.90
53422;DHT22;39319;52.944;5.928;2023-04-01T01:43:38;12.40;99.90
53422;DHT22;39319;52.944;5.928;2023-04-01T01:46:09;12.30;99.90
53422;DHT22;39319;52.944;5.928;2023-04-01T01:48:36;12.30;99.90
53422;DHT22;39319;52.944;5.928;2023-04-01T01:51:05;12.40;99.90
53422;DHT22;39319;52.944;5.928;2023-04-01T01:53:31;12.60;99.90
53422;DHT22;39319;52.944;5.928;2023-04-01T01:55:57;12.30;99.90
53422;DHT22;39319;52.944;5.928;2023-04-01T02:01:29;12.50;99.90
53422;DHT22;39319;52.944;5.928;2023-04-01T02:03:57;12.40;99.90
53422;DHT22;39319;52.944;5.928;2023-04-01T02:06:26;12.30;99.90
53422;DHT22;39319;52.944;5.928;2023-04-01T02:09:00;12.30;99.90
53422;DHT22;39319;52.944;5.928;2023-04-01T02:14:28;12.30;99.90
53422;DHT22;39319;52.944;5.928;2023-04-01T02:17:04;12.40;99.90
53422;DHT22;39319;52.944;5.928;2023-04-01T02:19:51;12.30;99.90
53422;DHT22;39319;52.944;5.928;2023-04-01T02:22:23;12.40;99.90
53422;DHT22;39319;52.944;5.928;2023-04-01T02:24:53;12.40;99.90
53422;DHT22;39319;52.944;5.928;2023-04-01T02:27:20;12.40;99.90
53422;DHT22;39319;52.944;5.928;2023-04-01T02:29:46;12.40;99.90
53422;DHT22;39319;52.944;5.928;2023-04-01T02:32:13;12.40;99.90
53422;DHT22;39319;52.944;5.928;2023-04-01T02:34:40;12.50;99.90
53422;DHT22;39319;52.944;5.928;2023-04-01T02:37:06;12.30;99.90
53422;DHT22;39319;52.944;5.928;2023-04-01T02:39:32;12.40;99.90
53422;DHT22;39319;52.944;5.928;2023-04-01T02:41:58;12.30;99.90
53422;DHT22;39319;52.944;5.928;2023-04-01T02:44:23;12.40;99.90
53422;DHT22;39319;52.944;5.928;2023-04-01T02:46:49;12.40;99.90
53422;DHT22;39319;52.944;5.928;2023-04-01T02:49:15;12.30;99.90
53422;DHT22;39319;52.944;5.928;2023-04-01T02:51:40;12.50;99.90
53422;DHT22;39319;52.944;5.928;2023-04-01T02:54:06;12.30;99.90
53422;DHT22;39319;52.944;5.928;2023-04-01T02:56:32;12.40;99.90
53422;DHT22;39319;52.944;5.928;2023-04-01T02:58:57;12.50;99.90
53422;DHT22;39319;52.944;5.928;2023-04-01T03:01:23;12.40;99.90
53422;DHT22;39319;52.944;5.928;2023-04-01T03:03:49;12.50;99.90
53422;DHT22;39319;52.944;5.928;2023-04-01T03:06:16;12.30;99.90
53422;DHT22;39319;52.944;5.928;2023-04-01T03:08:43;12.30;99.90
53422;DHT22;39319;52.944;5.928;2023-04-01T03:11:10;12.40;99.90
53422;DHT22;39319;52.944;5.928;2023-04-01T03:13:36;12.40;99.90
53422;DHT22;39319;52.944;5.928;2023-04-01T03:16:02;12.30;99.90
53422;DHT22;39319;52.944;5.928;2023-04-01T03:18:27;12.50;99.90
53422;DHT22;39319;52.944;5.928;2023-04-01T03:20:53;12.40;99.90
53422;DHT22;39319;52.944;5.928;2023-04-01T03:23:19;12.30;99.90
53422;DHT22;39319;52.944;5.928;2023-04-01T03:25:46;12.30;99.90
53422;DHT22;39319;52.944;5.928;2023-04-01T03:28:12;12.30;99.90
53422;DHT22;39319;52.944;5.928;2023-04-01T03:30:39;12.40;99.90
53422;DHT22;39319;52.944;5.928;2023-04-01T03:33:05;12.30;99.90
53422;DHT22;39319;52.944;5.928;2023-04-01T03:35:31;12.30;99.90
53422;DHT22;39319;52.944;5.928;2023-04-01T03:37:57;12.20;99.90
53422;DHT22;39319;52.944;5.928;2023-04-01T03:40:23;12.30;99.90
53422;DHT22;39319;52.944;5.928;2023-04-01T03:42:49;12.30;99.90
53422;DHT22;39319;52.944;5.928;2023-04-01T03:45:15;12.30;99.90
53422;DHT22;39319;52.944;5.928;2023-04-01T03:47:41;12.10;99.90
53422;DHT22;39319;52.944;5.928;2023-04-01T03:50:07;12.10;99.90
53422;DHT22;39319;52.944;5.928;2023-04-01T03:52:34;12.20;99.90
53422;DHT22;39319;52.944;5.928;2023-04-01T03:55:01;12.20;99.90
53422;DHT22;39319;52.944;5.928;2023-04-01T03:57:27;12.10;99.90
53422;DHT22;39319;52.944;5.928;2023-04-01T03:59:53;12.20;99.90
53422;DHT22;39319;52.944;5.928;2023-04-01T04:02:19;12.10;99.90
53422;DHT22;39319;52.944;5.928;2023-04-01T04:04:45;12.20;99.90
53422;DHT22;39319;52.944;5.928;2023-04-01T04:07:12;12.10;99.90
53422;DHT22;39319;52.944;5.928;2023-04-01T04:09:37;12.10;99.90
53422;DHT22;39319;52.944;5.928;2023-04-01T04:12:03;12.10;99.90
53422;DHT22;39319;52.944;5.928;2023-04-01T04:14:31;12.20;99.90
53422;DHT22;39319;52.944;5.928;2023-04-01T04:16:57;12.10;99.90
53422;DHT22;39319;52.944;5.928;2023-04-01T04:19:23;12.20;99.90
53422;DHT22;39319;52.944;5.928;2023-04-01T04:21:49;12.00;99.90
53422;DHT22;39319;52.944;5.928;2023-04-01T04:24:14;12.10;99.90
53422;DHT22;39319;52.944;5.928;2023-04-01T04:26:40;12.00;99.90
53422;DHT22;39319;52.944;5.928;2023-04-01T04:29:06;12.10;99.90
53422;DHT22;39319;52.944;5.928;2023-04-01T04:31:32;12.00;99.90
53422;DHT22;39319;52.944;5.928;2023-04-01T04:33:59;12.00;99.90
53422;DHT22;39319;52.944;5.928;2023-04-01T04:36:26;12.10;99.90
53422;DHT22;39319;52.944;5.928;2023-04-01T04:38:52;12.10;99.90
53422;DHT22;39319;52.944;5.928;2023-04-01T04:41:19;12.20;99.90
53422;DHT22;39319;52.944;5.928;2023-04-01T04:43:54;12.10;99.90
53422;DHT22;39319;52.944;5.928;2023-04-01T04:46:21;12.10;99.90
53422;DHT22;39319;52.944;5.928;2023-04-01T04:48:46;12.30;99.90
53422;DHT22;39319;52.944;5.928;2023-04-01T04:51:14;12.00;99.90
53422;DHT22;39319;52.944;5.928;2023-04-01T04:53:42;12.10;99.90
53422;DHT22;39319;52.944;5.928;2023-04-01T04:56:08;12.10;99.90
53422;DHT22;39319;52.944;5.928;2023-04-01T04:58:34;12.00;99.90
53422;DHT22;39319;52.944;5.928;2023-04-01T05:01:09;12.10;99.90
53422;DHT22;39319;52.944;5.928;2023-04-01T05:03:37;12.10;99.90
53422;DHT22;39319;52.944;5.928;2023-04-01T05:06:04;12.00;99.90
53422;DHT22;39319;52.944;5.928;2023-04-01T05:08:30;12.00;99.90
53422;DHT22;39319;52.944;5.928;2023-04-01T05:10:56;12.20;99.90
53422;DHT22;39319;52.944;5.928;2023-04-01T05:13:22;12.00;99.90
53422;DHT22;39319;52.944;5.928;2023-04-01T05:15:47;12.00;99.90
53422;DHT22;39319;52.944;5.928;2023-04-01T05:18:13;12.00;99.90
53422;DHT22;39319;52.944;5.928;2023-04-01T05:20:39;12.20;99.90
53422;DHT22;39319;52.944;5.928;2023-04-01T05:23:04;12.00;99.90
53422;DHT22;39319;52.944;5.928;2023-04-01T05:25:30;12.00;99.90
53422;DHT22;39319;52.944;5.928;2023-04-01T05:27:56;12.00;99.90
53422;DHT22;39319;52.944;5.928;2023-04-01T05:30:21;12.20;99.90
53422;DHT22;39319;52.944;5.928;2023-04-01T05:32:49;12.10;99.90
53422;DHT22;39319;52.944;5.928;2023-04-01T05:35:15;12.10;99.90
53422;DHT22;39319;52.944;5.928;2023-04-01T05:37:41;12.10;99.90
53422;DHT22;39319;52.944;5.928;2023-04-01T05:40:07;12.20;99.90
53422;DHT22;39319;52.944;5.928;2023-04-01T05:42:33;12.10;99.90
53422;DHT22;39319;52.944;5.928;2023-04-01T05:44:59;12.20;99.90
53422;DHT22;39319;52.944;5.928;2023-04-01T05:47:27;12.30;99.90
53422;DHT22;39319;52.944;5.928;2023-04-01T05:49:52;12.10;99.90
53422;DHT22;39319;52.944;5.928;2023-04-01T05:52:18;12.20;99.90
53422;DHT22;39319;52.944;5.928;2023-04-01T05:54:44;12.20;99.90
53422;DHT22;39319;52.944;5.928;2023-04-01T05:57:10;12.20;99.90
53422;DHT22;39319;52.944;5.928;2023-04-01T05:59:35;12.20;99.90
53422;DHT22;39319;52.944;5.928;2023-04-01T06:02:01;12.20;99.90
53422;DHT22;39319;52.944;5.928;2023-04-01T06:04:31;12.20;99.90
53422;DHT22;39319;52.944;5.928;2023-04-01T06:06:58;12.30;99.90
53422;DHT22;39319;52.944;5.928;2023-04-01T06:09:29;12.40;99.90
53422;DHT22;39319;52.944;5.928;2023-04-01T06:45:55;12.40;99.90
53422;DHT22;39319;52.944;5.928;2023-04-01T06:51:07;12.40;99.90
53422;DHT22;39319;52.944;5.928;2023-04-01T06:56:27;12.50;99.90
53422;DHT22;39319;52.944;5.928;2023-04-01T06:59:00;12.50;99.90
53422;DHT22;39319;52.944;5.928;2023-04-01T07:01:59;12.30;99.90
53422;DHT22;39319;52.944;5.928;2023-04-01T07:04:38;12.60;99.90
53422;DHT22;39319;52.944;5.928;2023-04-01T07:07:33;12.40;99.90
53422;DHT22;39319;52.944;5.928;2023-04-01T07:10:04;12.50;99.90
53422;DHT22;39319;52.944;5.928;2023-04-01T07:12:40;12.50;99.90
53422;DHT22;39319;52.944;5.928;2023-04-01T07:15:25;12.50;99.90
53422;DHT22;39319;52.944;5.928;2023-04-01T07:17:57;12.50;99.90
53422;DHT22;39319;52.944;5.928;2023-04-01T07:20:32;12.30;99.90
53422;DHT22;39319;52.944;5.928;2023-04-01T07:23:05;12.50;99.90
53422;DHT22;39319;52.944;5.928;2023-04-01T07:25:44;12.40;99.90
53422;DHT22;39319;52.944;5.928;2023-04-01T07:28:15;12.50;99.90
53422;DHT22;39319;52.944;5.928;2023-04-01T07:36:28;12.50;99.90
53422;DHT22;39319;52.944;5.928;2023-04-01T07:41:42;12.50;99.90
53422;DHT22;39319;52.944;5.928;2023-04-01T07:50:31;12.80;99.90
53422;DHT22;39319;52.944;5.928;2023-04-01T07:58:32;12.70;99.90
53422;DHT22;39319;52.944;5.928;2023-04-01T08:09:07;13.10;99.90
53422;DHT22;39319;52.944;5.928;2023-04-01T08:16:58;12.80;99.90
53422;DHT22;39319;52.944;5.928;2023-04-01T08:21:57;13.00;99.90
53422;DHT22;39319;52.944;5.928;2023-04-01T08:24:25;12.80;99.90
53422;DHT22;39319;52.944;5.928;2023-04-01T08:26:59;13.10;99.90
53422;DHT22;39319;52.944;5.928;2023-04-01T08:35:02;13.10;99.90
53422;DHT22;39319;52.944;5.928;2023-04-01T08:37:36;13.40;99.90
53422;DHT22;39319;52.944;5.928;2023-04-01T08:54:37;13.30;99.90
53422;DHT22;39319;52.944;5.928;2023-04-01T08:59:56;13.30;99.90
53422;DHT22;39319;52.944;5.928;2023-04-01T09:02:56;13.30;99.90
53422;DHT22;39319;52.944;5.928;2023-04-01T09:13:48;13.20;99.90
53422;DHT22;39319;52.944;5.928;2023-04-01T09:24:41;13.30;99.90
53422;DHT22;39319;52.944;5.928;2023-04-01T09:30:03;13.40;99.90
53422;DHT22;39319;52.944;5.928;2023-04-01T09:35:50;13.30;99.90
53422;DHT22;39319;52.944;5.928;2023-04-01T09:38:56;13.30;99.90
53422;DHT22;39319;52.944;5.928;2023-04-01T09:41:39;13.30;99.90
53422;DHT22;39319;52.944;5.928;2023-04-01T09:44:56;13.30;99.90
53422;DHT22;39319;52.944;5.928;2023-04-01T10:45:56;13.20;99.90
53422;DHT22;39319;52.944;5.928;2023-04-01T10:57:26;13.10;99.90
53422;DHT22;39319;52.944;5.928;2023-04-01T11:24:36;13.00;99.90
53422;DHT22;39319;52.944;5.928;2023-04-01T11:41:39;13.00;99.90
53422;DHT22;39319;52.944;5.928;2023-04-01T11:44:24;12.90;99.90
53422;DHT22;39319;52.944;5.928;2023-04-01T11:47:09;13.00;99.90
53422;DHT22;39319;52.944;5.928;2023-04-01T12:08:31;12.90;99.90
53422;DHT22;39319;52.944;5.928;2023-04-01T12:19:35;13.30;99.90
53422;DHT22;39319;52.944;5.928;2023-04-01T12:30:10;13.30;99.90
53422;DHT22;39319;52.944;5.928;2023-04-01T12:35:30;13.20;99.90
53422;DHT22;39319;52.944;5.928;2023-04-01T12:41:08;13.20;99.90
53422;DHT22;39319;52.944;5.928;2023-04-01T12:44:13;13.20;99.90
53422;DHT22;39319;52.944;5.928;2023-04-01T12:57:51;13.30;99.90
53422;DHT22;39319;52.944;5.928;2023-04-01T13:00:46;13.20;99.90
53422;DHT22;39319;52.944;5.928;2023-04-01T13:20:06;13.10;99.90
53422;DHT22;39319;52.944;5.928;2023-04-01T13:28:17;13.10;99.90
53422;DHT22;39319;52.944;5.928;2023-04-01T13:37:38;13.10;99.90
53422;DHT22;39319;52.944;5.928;2023-04-01T13:56:33;13.00;99.90
53422;DHT22;39319;52.944;5.928;2023-04-01T14:04:27;13.00;99.90
53422;DHT22;39319;52.944;5.928;2023-04-01T14:07:31;13.00;99.90
53422;DHT22;39319;52.944;5.928;2023-04-01T14:18:42;12.90;99.90
53422;DHT22;39319;52.944;5.928;2023-04-01T14:21:32;13.00;99.90
53422;DHT22;39319;52.944;5.928;2023-04-01T14:27:02;12.90;99.90
53422;DHT22;39319;52.944;5.928;2023-04-01T14:48:57;12.70;99.90
53422;DHT22;39319;52.944;5.928;2023-04-01T14:51:38;12.60;99.90
53422;DHT22;39319;52.944;5.928;2023-04-01T14:54:06;12.70;99.90
53422;DHT22;39319;52.944;5.928;2023-04-01T14:56:44;12.60;99.90
53422;DHT22;39319;52.944;5.928;2023-04-01T15:13:13;12.40;99.90
53422;DHT22;39319;52.944;5.928;2023-04-01T15:18:46;12.50;99.90
53422;DHT22;39319;52.944;5.928;2023-04-01T15:24:24;12.30;99.90
53422;DHT22;39319;52.944;5.928;2023-04-01T15:32:26;12.30;99.90
53422;DHT22;39319;52.944;5.928;2023-04-01T15:35:09;12.30;99.90
53422;DHT22;39319;52.944;5.928;2023-04-01T15:38:06;12.20;99.90
53422;DHT22;39319;52.944;5.928;2023-04-01T15:54:05;11.90;99.90
53422;DHT22;39319;52.944;5.928;2023-04-01T15:56:43;12.10;99.90
53422;DHT22;39319;52.944;5.928;2023-04-01T16:04:55;12.10;99.90
53422;DHT22;39319;52.944;5.928;2023-04-01T16:13:23;11.90;99.90
53422;DHT22;39319;52.944;5.928;2023-04-01T16:27:36;11.80;99.90
53422;DHT22;39319;52.944;5.928;2023-04-01T16:30:23;11.80;99.90
53422;DHT22;39319;52.944;5.928;2023-04-01T16:46:43;11.60;99.90
53422;DHT22;39319;52.944;5.928;2023-04-01T16:54:31;11.40;99.90
53422;DHT22;39319;52.944;5.928;2023-04-01T16:59:47;11.40;99.90
53422;DHT22;39319;52.944;5.928;2023-04-01T17:02:18;11.30;99.90
53422;DHT22;39319;52.944;5.928;2023-04-01T17:04:58;11.60;99.90
53422;DHT22;39319;52.944;5.928;2023-04-01T17:07:48;11.40;99.90
53422;DHT22;39319;52.944;5.928;2023-04-01T17:18:11;11.10;99.90
53422;DHT22;39319;52.944;5.928;2023-04-01T17:21:07;11.10;99.90
53422;DHT22;39319;52.944;5.928;2023-04-01T17:45:57;11.00;99.90
53422;DHT22;39319;52.944;5.928;2023-04-01T17:57:01;10.90;99.90
53422;DHT22;39319;52.944;5.928;2023-04-01T18:05:41;10.80;99.90
53422;DHT22;39319;52.944;5.928;2023-04-01T18:11:33;10.60;99.90
53422;DHT22;39319;52.944;5.928;2023-04-01T18:14:23;10.60;99.90
53422;DHT22;39319;52.944;5.928;2023-04-01T18:22:40;10.70;99.50
53422;DHT22;39319;52.944;5.928;2023-04-01T18:30:44;10.50;99.90
53422;DHT22;39319;52.944;5.928;2023-04-01T18:33:41;10.50;99.90
53422;DHT22;39319;52.944;5.928;2023-04-01T18:36:16;10.40;99.90
53422;DHT22;39319;52.944;5.928;2023-04-01T18:38:52;10.50;99.90
53422;DHT22;39319;52.944;5.928;2023-04-01T18:41:43;10.50;99.90
53422;DHT22;39319;52.944;5.928;2023-04-01T18:52:53;10.30;99.70
53422;DHT22;39319;52.944;5.928;2023-04-01T18:55:24;10.50;99.90
53422;DHT22;39319;52.944;5.928;2023-04-01T18:57:59;10.30;99.70
53422;DHT22;39319;52.944;5.928;2023-04-01T19:00:41;10.40;99.90
53422;DHT22;39319;52.944;5.928;2023-04-01T19:08:47;10.20;99.50
53422;DHT22;39319;52.944;5.928;2023-04-01T19:11:42;10.30;99.30
53422;DHT22;39319;52.944;5.928;2023-04-01T19:14:59;10.10;99.50
53422;DHT22;39319;52.944;5.928;2023-04-01T19:17:43;10.10;99.70
53422;DHT22;39319;52.944;5.928;2023-04-01T19:25:58;10.00;99.60
53422;DHT22;39319;52.944;5.928;2023-04-01T19:34:18;10.10;99.80
53422;DHT22;39319;52.944;5.928;2023-04-01T19:42:46;10.20;99.70
53422;DHT22;39319;52.944;5.928;2023-04-01T20:01:20;10.10;99.40
53422;DHT22;39319;52.944;5.928;2023-04-01T20:04:01;10.00;99.10
53422;DHT22;39319;52.944;5.928;2023-04-01T20:09:08;9.90;99.20
53422;DHT22;39319;52.944;5.928;2023-04-01T20:14:47;9.80;99.50
53422;DHT22;39319;52.944;5.928;2023-04-01T20:17:21;9.70;99.30
53422;DHT22;39319;52.944;5.928;2023-04-01T20:25:05;9.90;99.10
53422;DHT22;39319;52.944;5.928;2023-04-01T20:27:36;9.90;98.70
53422;DHT22;39319;52.944;5.928;2023-04-01T20:30:34;9.80;99.10
53422;DHT22;39319;52.944;5.928;2023-04-01T21:04:22;9.40;99.00
53422;DHT22;39319;52.944;5.928;2023-04-01T21:07:11;9.40;98.70
53422;DHT22;39319;52.944;5.928;2023-04-01T21:12:43;9.40;98.50
53422;DHT22;39319;52.944;5.928;2023-04-01T21:26:35;9.30;98.80
53422;DHT22;39319;52.944;5.928;2023-04-01T21:29:21;9.20;98.80
53422;DHT22;39319;52.944;5.928;2023-04-01T21:54:50;9.00;98.50
53422;DHT22;39319;52.944;5.928;2023-04-01T22:01:11;9.10;98.40
53422;DHT22;39319;52.944;5.928;2023-04-01T22:06:12;9.10;98.20
53422;DHT22;39319;52.944;5.928;2023-04-01T22:17:00;8.30;98.20
53422;DHT22;39319;52.944;5.928;2023-04-01T22:27:49;9.20;98.30
53422;DHT22;39319;52.944;5.928;2023-04-01T22:30:29;9.10;98.10
53422;DHT22;39319;52.944;5.928;2023-04-01T22:33:09;9.00;98.50
53422;DHT22;39319;52.944;5.928;2023-04-01T22:43:59;9.20;98.20
53422;DHT22;39319;52.944;5.928;2023-04-01T22:49:25;9.10;98.10
53422;DHT22;39319;52.944;5.928;2023-04-01T22:54:45;8.90;98.00
53422;DHT22;39319;52.944;5.928;2023-04-01T22:57:13;9.10;98.30
53422;DHT22;39319;52.944;5.928;2023-04-01T23:02:59;9.00;97.80
53422;DHT22;39319;52.944;5.928;2023-04-01T23:05:24;8.80;97.60
53422;DHT22;39319;52.944;5.928;2023-04-01T23:08:00;9.00;97.90
53422;DHT22;39319;52.944;5.928;2023-04-01T23:13:13;8.90;97.80
53422;DHT22;39319;52.944;5.928;2023-04-01T23:15:40;8.80;98.00
53422;DHT22;39319;52.944;5.928;2023-04-01T23:28:54;8.90;97.70
53422;DHT22;39319;52.944;5.928;2023-04-01T23:33:56;8.70;97.80
53422;DHT22;39319;52.944;5.928;2023-04-01T23:36:22;8.90;97.50
53422;DHT22;39319;52.944;5.928;2023-04-01T23:38:49;8.70;97.70
53422;DHT22;39319;52.944;5.928;2023-04-01T23:41:23;8.70;97.70
53422;DHT22;39319;52.944;5.928;2023-04-01T23:44:10;8.70;97.10
53422;DHT22;39319;52.944;5.928;2023-04-01T23:46:37;8.70;97.40
53422;DHT22;39319;52.944;5.928;2023-04-01T23:49:09;8.80;97.50
53422;DHT22;39319;52.944;5.928;2023-04-01T23:51:39;8.60;97.20
53422;DHT22;39319;52.944;5.928;2023-04-01T23:54:25;8.60;97.50
53422;DHT22;39319;52.944;5.928;2023-04-01T23:56:55;8.60;97.20
53422;DHT22;39319;52.944;5.928;2023-04-01T23:59:30;8.60;97.00
